Time;durP1;ratioP1;P1;durP2;ratioP2;P2;SDS_P1;SDS_P2;PMS_P1;PMS_P2;Temp;Humidity;BMP_temperature;BMP_pressure;BME280_temperature;BME280_humidity;BME280_pressure;Samples;Min_cycle;Max_cycle;Signal;HPM_P1;HPM_P2
2024/03/16 00:00:36;;;;;;;16.08;3.05;;;11.70;99.90;;;;;;5018604;28;20548;-70
2024/03/16 00:03:04;;;;;;;12.13;2.25;;;11.70;99.90;;;;;;4997850;28;20034;-70
2024/03/16 00:05:30;;;;;;;20.00;2.88;;;11.70;99.90;;;;;;4999525;28;20033;-71
2024/03/16 00:07:55;;;;;;;16.77;2.42;;;11.70;99.90;;;;;;5023735;28;20082;-72
2024/03/16 00:10:21;;;;;;;15.40;2.17;;;11.70;99.90;;;;;;5015621;28;20049;-70
2024/03/16 00:12:46;;;;;;;19.80;2.60;;;11.70;99.90;;;;;;4998854;28;20076;-71
2024/03/16 00:15:12;;;;;;;25.30;3.53;;;11.70;99.90;;;;;;5016124;28;20041;-67
2024/03/16 00:17:37;;;;;;;14.98;2.15;;;11.60;99.90;;;;;;5014068;28;20096;-69
2024/03/16 00:20:10;;;;;;;18.83;3.50;;;11.50;99.90;;;;;;5001203;28;20407;-70
2024/03/16 00:22:37;;;;;;;14.77;2.40;;;11.50;99.90;;;;;;4999996;28;20025;-71
2024/03/16 00:25:03;;;;;;;22.02;4.82;;;11.40;99.90;;;;;;4998535;28;20120;-71
2024/03/16 00:27:29;;;;;;;15.07;1.77;;;11.30;99.90;;;;;;5017627;28;20037;-71
2024/03/16 00:29:55;;;;;;;21.00;2.95;;;11.30;99.90;;;;;;5019803;28;20034;-68
2024/03/16 00:32:21;;;;;;;24.73;5.13;;;11.20;99.90;;;;;;4997816;28;20030;-73
2024/03/16 00:34:47;;;;;;;19.42;3.03;;;11.20;99.90;;;;;;5016015;28;20041;-71
2024/03/16 00:37:13;;;;;;;21.73;3.92;;;11.20;99.90;;;;;;5022810;28;20523;-68
2024/03/16 00:39:39;;;;;;;24.33;3.70;;;11.10;99.90;;;;;;5019687;28;20030;-70
2024/03/16 00:42:05;;;;;;;17.98;3.20;;;11.10;99.90;;;;;;5017647;28;20034;-72
2024/03/16 00:44:31;;;;;;;16.88;4.50;;;11.00;99.90;;;;;;5017687;28;20042;-72
2024/03/16 00:46:56;;;;;;;12.18;2.55;;;11.00;99.90;;;;;;5013536;28;20682;-71
2024/03/16 00:49:22;;;;;;;21.67;3.70;;;11.00;99.90;;;;;;5015966;28;20052;-71
2024/03/16 00:51:50;;;;;;;21.98;3.58;;;11.00;99.90;;;;;;5017636;28;20490;-71
2024/03/16 00:54:15;;;;;;;25.65;4.55;;;11.00;99.90;;;;;;4991775;28;20049;-70
2024/03/16 00:56:41;;;;;;;25.25;4.85;;;10.90;99.90;;;;;;5016765;28;20414;-68
2024/03/16 00:59:07;;;;;;;34.10;4.30;;;10.90;99.90;;;;;;5012630;28;20045;-71
2024/03/16 01:01:36;;;;;;;28.25;3.97;;;11.00;99.90;;;;;;5011262;28;20046;-72
2024/03/16 01:04:02;;;;;;;17.73;3.67;;;10.90;99.90;;;;;;4991556;28;20049;-69
2024/03/16 01:06:28;;;;;;;31.15;5.55;;;10.90;99.90;;;;;;5011604;28;20030;-72
2024/03/16 01:08:54;;;;;;;29.85;4.40;;;10.90;99.90;;;;;;5008190;28;20034;-70
2024/03/16 01:11:19;;;;;;;23.92;4.55;;;10.90;99.90;;;;;;4990096;28;20037;-71
2024/03/16 01:13:45;;;;;;;33.38;5.38;;;10.90;99.90;;;;;;5016046;28;20039;-72
2024/03/16 01:16:10;;;;;;;36.05;3.90;;;10.80;99.90;;;;;;5006579;28;20068;-72
2024/03/16 01:18:39;;;;;;;22.20;3.72;;;10.80;99.90;;;;;;4994570;28;20065;-72
2024/03/16 01:21:06;;;;;;;12.88;2.90;;;10.70;99.90;;;;;;5006402;28;20499;-72
2024/03/16 01:23:33;;;;;;;18.00;2.88;;;10.70;99.90;;;;;;4996587;28;20042;-71
2024/03/16 01:26:03;;;;;;;12.13;2.65;;;10.60;99.90;;;;;;5014234;28;20485;-72
2024/03/16 01:28:29;;;;;;;11.73;1.98;;;10.50;99.90;;;;;;4994716;28;20036;-72
2024/03/16 01:30:54;;;;;;;12.55;1.70;;;10.50;99.90;;;;;;5013576;28;20406;-67
2024/03/16 01:33:20;;;;;;;8.25;1.77;;;10.40;99.90;;;;;;5011674;28;20037;-73
2024/03/16 01:35:48;;;;;;;11.70;1.45;;;10.40;99.90;;;;;;5017296;28;20115;-72
2024/03/16 01:38:14;;;;;;;4.95;1.55;;;10.30;99.90;;;;;;5014505;28;20061;-72
2024/03/16 01:40:40;;;;;;;6.60;0.90;;;10.30;99.90;;;;;;5012306;28;20091;-73
2024/03/16 01:43:07;;;;;;;5.70;1.42;;;10.20;99.90;;;;;;5006863;28;20037;-70
2024/03/16 01:45:32;;;;;;;8.43;2.08;;;10.20;99.90;;;;;;4995643;28;20450;-73
2024/03/16 01:48:03;;;;;;;6.82;1.35;;;10.10;99.90;;;;;;4996018;28;20045;-71
2024/03/16 01:50:28;;;;;;;6.93;1.10;;;10.10;99.90;;;;;;5010519;28;20026;-70
2024/03/16 01:52:54;;;;;;;6.97;1.10;;;10.10;99.90;;;;;;5014790;28;20646;-68
2024/03/16 01:55:20;;;;;;;3.08;0.82;;;10.10;99.90;;;;;;5010973;28;20596;-71
2024/03/16 01:57:46;;;;;;;4.32;1.55;;;10.00;99.90;;;;;;5010389;28;20478;-72
2024/03/16 02:00:11;;;;;;;2.28;0.63;;;10.00;99.90;;;;;;5012455;28;20037;-71
2024/03/16 02:02:41;;;;;;;6.13;0.73;;;10.00;99.90;;;;;;5011566;28;20041;-70
2024/03/16 02:05:07;;;;;;;9.40;1.02;;;9.90;99.90;;;;;;4991157;28;20040;-70
2024/03/16 02:07:34;;;;;;;4.20;1.65;;;9.80;99.90;;;;;;4997287;28;20041;-71
2024/03/16 02:10:01;;;;;;;3.00;0.65;;;9.70;99.90;;;;;;5015313;28;20057;-73
2024/03/16 02:12:27;;;;;;;4.18;0.68;;;9.70;99.90;;;;;;5007812;28;20034;-71
2024/03/16 02:14:52;;;;;;;3.95;1.13;;;9.60;99.90;;;;;;5014516;28;20045;-72
2024/03/16 02:17:18;;;;;;;2.85;0.73;;;9.60;99.90;;;;;;4994062;28;20403;-72
2024/03/16 02:19:47;;;;;;;3.03;0.80;;;9.60;99.90;;;;;;5013100;28;20033;-73
2024/03/16 02:22:16;;;;;;;9.23;1.17;;;9.50;99.90;;;;;;4996301;28;20053;-72
2024/03/16 02:24:42;;;;;;;7.40;1.30;;;9.50;99.90;;;;;;4979901;28;20046;-70
2024/03/16 02:27:08;;;;;;;4.93;1.20;;;9.50;99.90;;;;;;5016529;28;20033;-70
2024/03/16 02:29:36;;;;;;;4.63;1.00;;;9.50;99.90;;;;;;5012543;28;20049;-70
2024/03/16 02:32:06;;;;;;;6.78;0.80;;;9.50;99.90;;;;;;5011634;28;20049;-72
2024/03/16 02:34:36;;;;;;;8.55;1.13;;;9.50;99.90;;;;;;5016220;28;20402;-72
2024/03/16 02:37:02;;;;;;;3.60;0.93;;;9.50;99.90;;;;;;5014462;28;20498;-72
2024/03/16 02:39:27;;;;;;;8.63;1.10;;;9.40;99.90;;;;;;4996917;28;20034;-72
2024/03/16 02:41:55;;;;;;;7.45;1.02;;;9.40;99.90;;;;;;5012615;28;20399;-72
2024/03/16 02:44:21;;;;;;;21.08;1.55;;;9.40;99.90;;;;;;5014697;28;20026;-74
2024/03/16 02:46:47;;;;;;;4.22;1.17;;;9.40;99.90;;;;;;5015081;28;20037;-72
2024/03/16 02:49:12;;;;;;;7.53;1.73;;;9.40;99.90;;;;;;5012112;28;20061;-72
2024/03/16 02:51:38;;;;;;;6.78;1.50;;;9.40;99.90;;;;;;4993597;28;20041;-71
2024/03/16 02:54:06;;;;;;;9.02;1.00;;;9.30;99.90;;;;;;5008905;28;20175;-71
2024/03/16 02:56:32;;;;;;;10.93;1.15;;;9.30;99.90;;;;;;5012700;28;20103;-72
2024/03/16 02:58:58;;;;;;;5.07;0.70;;;9.30;99.90;;;;;;5012157;28;20029;-72
2024/03/16 03:01:24;;;;;;;9.32;1.38;;;9.30;99.90;;;;;;5017042;28;20044;-72
2024/03/16 03:03:49;;;;;;;10.23;2.58;;;9.30;99.90;;;;;;5015692;28;20034;-71
2024/03/16 03:06:15;;;;;;;10.88;1.38;;;9.20;99.90;;;;;;4996809;28;20038;-71
2024/03/16 03:08:43;;;;;;;11.38;1.23;;;9.20;99.90;;;;;;4996131;28;20125;-71
2024/03/16 03:11:09;;;;;;;6.53;1.05;;;9.10;99.90;;;;;;5020106;28;20040;-70
2024/03/16 03:13:34;;;;;;;3.40;1.10;;;9.10;99.90;;;;;;5019621;28;20038;-72
2024/03/16 03:16:00;;;;;;;7.47;0.82;;;9.00;99.90;;;;;;5002053;28;20045;-71
2024/03/16 03:18:26;;;;;;;4.90;0.80;;;9.00;99.90;;;;;;5014363;28;20080;-71
2024/03/16 03:20:52;;;;;;;8.85;1.20;;;9.00;99.90;;;;;;5015511;28;20399;-72
2024/03/16 03:23:17;;;;;;;3.75;0.30;;;8.90;99.90;;;;;;5000501;28;20034;-72
2024/03/16 03:25:44;;;;;;;2.95;0.80;;;8.90;99.90;;;;;;5018097;28;21075;-71
2024/03/16 03:28:10;;;;;;;4.22;0.32;;;8.90;99.90;;;;;;5001404;28;20121;-72
2024/03/16 03:30:36;;;;;;;2.15;0.70;;;8.80;99.90;;;;;;5003555;28;20034;-71
2024/03/16 03:33:01;;;;;;;2.47;0.55;;;8.80;99.90;;;;;;5018399;28;20069;-71
2024/03/16 03:35:28;;;;;;;10.45;0.88;;;8.70;99.90;;;;;;5016528;28;20084;-71
2024/03/16 03:37:54;;;;;;;9.93;0.60;;;8.80;99.90;;;;;;5019805;28;20125;-70
2024/03/16 03:40:19;;;;;;;3.58;0.50;;;8.80;99.90;;;;;;5019303;28;20120;-72
2024/03/16 03:42:47;;;;;;;3.60;0.45;;;8.80;99.90;;;;;;5005046;28;20055;-71
2024/03/16 03:45:37;;;;;;;3.45;0.50;;;8.70;99.90;;;;;;5005442;28;20089;-71
2024/03/16 03:48:25;;;;;;;6.53;0.38;;;8.80;99.90;;;;;;5017898;28;20034;-71
2024/03/16 03:50:57;;;;;;;3.83;0.82;;;8.70;99.90;;;;;;5015790;28;20044;-71
2024/03/16 03:53:24;;;;;;;10.43;0.55;;;8.70;99.90;;;;;;5014064;28;20034;-71
2024/03/16 03:55:50;;;;;;;4.55;0.22;;;8.60;99.90;;;;;;5008711;28;20034;-70
2024/03/16 03:58:17;;;;;;;2.03;0.47;;;8.60;99.90;;;;;;5024316;28;20033;-72
2024/03/16 04:00:44;;;;;;;3.15;1.10;;;8.60;99.90;;;;;;4997415;28;20117;-71
2024/03/16 04:03:10;;;;;;;5.85;0.70;;;8.60;99.90;;;;;;5020078;28;20038;-72
2024/03/16 04:05:35;;;;;;;1.70;0.32;;;8.60;99.90;;;;;;5002849;28;20034;-71
2024/03/16 04:08:01;;;;;;;3.45;0.60;;;8.60;99.90;;;;;;5008377;28;20155;-71
2024/03/16 04:10:27;;;;;;;2.53;0.30;;;8.60;99.90;;;;;;5020113;28;20033;-71
2024/03/16 04:12:53;;;;;;;5.00;0.80;;;8.60;99.90;;;;;;4996046;28;20026;-71
2024/03/16 04:15:18;;;;;;;3.83;1.23;;;8.60;99.90;;;;;;5013062;28;20132;-71
2024/03/16 04:17:44;;;;;;;2.58;0.50;;;8.60;99.90;;;;;;5008305;28;20038;-71
2024/03/16 04:20:12;;;;;;;12.23;1.13;;;8.60;99.90;;;;;;5013596;28;20026;-70
2024/03/16 04:22:38;;;;;;;8.48;0.75;;;8.60;99.90;;;;;;5012662;28;20104;-71
2024/03/16 04:25:06;;;;;;;5.53;0.40;;;8.70;99.90;;;;;;5016805;28;20025;-71
2024/03/16 04:27:32;;;;;;;4.70;0.50;;;8.60;99.90;;;;;;5012732;28;20041;-71
2024/03/16 04:29:58;;;;;;;8.27;0.85;;;8.50;99.90;;;;;;5013848;28;20088;-71
2024/03/16 04:32:27;;;;;;;9.20;0.70;;;8.50;99.90;;;;;;5012583;28;20046;-71
2024/03/16 04:34:53;;;;;;;8.95;2.03;;;8.40;99.90;;;;;;5018591;28;20033;-72
2024/03/16 04:37:19;;;;;;;5.03;0.98;;;8.30;99.90;;;;;;4997570;28;20041;-72
2024/03/16 04:39:45;;;;;;;4.57;0.50;;;8.30;99.90;;;;;;5008747;28;20531;-70
2024/03/16 04:42:10;;;;;;;4.93;0.40;;;8.30;99.90;;;;;;5017561;28;20041;-70
2024/03/16 04:44:36;;;;;;;2.42;0.40;;;8.30;99.90;;;;;;5016785;28;20053;-68
2024/03/16 04:47:03;;;;;;;7.40;1.13;;;8.30;99.90;;;;;;5007100;28;20438;-70
2024/03/16 04:49:29;;;;;;;3.85;0.95;;;8.30;99.90;;;;;;5010927;28;20048;-71
2024/03/16 04:51:55;;;;;;;8.25;1.23;;;8.30;99.90;;;;;;4995946;28;20037;-70
2024/03/16 04:54:20;;;;;;;8.32;1.90;;;8.40;99.90;;;;;;5012217;28;20041;-70
2024/03/16 04:56:46;;;;;;;5.72;1.13;;;8.40;99.90;;;;;;5012965;28;20065;-71
2024/03/16 04:59:11;;;;;;;12.23;1.38;;;8.40;99.90;;;;;;4996487;28;20080;-71
2024/03/16 05:01:37;;;;;;;6.45;0.40;;;8.40;99.90;;;;;;5010870;28;20453;-71
2024/03/16 05:04:03;;;;;;;18.70;1.05;;;8.40;99.90;;;;;;5017281;28;20029;-69
2024/03/16 05:06:31;;;;;;;6.65;2.15;;;8.40;99.90;;;;;;4995443;28;20045;-70
2024/03/16 05:08:57;;;;;;;12.27;0.70;;;8.40;99.90;;;;;;5012413;28;20033;-72
2024/03/16 05:11:23;;;;;;;4.95;0.90;;;8.40;99.90;;;;;;5018758;28;20036;-72
2024/03/16 05:13:49;;;;;;;3.67;1.20;;;8.50;99.90;;;;;;4996235;28;20034;-71
2024/03/16 05:16:15;;;;;;;4.65;0.35;;;8.40;99.90;;;;;;5014995;28;20041;-71
2024/03/16 05:18:40;;;;;;;3.85;0.47;;;8.30;99.90;;;;;;5014757;28;20034;-72
2024/03/16 05:21:07;;;;;;;2.85;0.38;;;8.30;99.90;;;;;;5011571;28;20057;-69
2024/03/16 05:23:33;;;;;;;6.28;0.77;;;8.20;99.90;;;;;;4991780;28;20045;-72
2024/03/16 05:25:59;;;;;;;8.68;0.70;;;8.20;99.90;;;;;;5015564;28;20042;-70
2024/03/16 05:28:24;;;;;;;2.70;1.08;;;8.10;99.90;;;;;;5017223;28;20045;-70
2024/03/16 05:30:53;;;;;;;6.45;0.32;;;8.00;99.90;;;;;;4997826;28;20030;-71
2024/03/16 05:33:19;;;;;;;5.68;0.60;;;8.00;99.90;;;;;;5012116;28;20108;-71
2024/03/16 05:35:45;;;;;;;6.78;0.90;;;7.90;99.90;;;;;;5014907;28;20495;-71
2024/03/16 05:38:10;;;;;;;8.25;1.00;;;7.90;99.90;;;;;;4997950;28;20034;-69
2024/03/16 05:40:41;;;;;;;5.20;0.90;;;7.90;99.90;;;;;;5013415;28;20505;-71
2024/03/16 05:43:07;;;;;;;9.40;0.65;;;7.90;99.90;;;;;;5016418;28;20033;-70
2024/03/16 05:45:32;;;;;;;3.17;1.00;;;7.90;99.90;;;;;;5010856;28;20040;-71
2024/03/16 05:47:58;;;;;;;4.30;0.47;;;7.90;99.90;;;;;;5018958;28;20061;-70
2024/03/16 05:50:23;;;;;;;8.48;1.27;;;7.90;99.90;;;;;;5011208;28;20042;-71
2024/03/16 05:52:49;;;;;;;3.47;1.00;;;7.90;99.90;;;;;;5007241;28;20521;-71
2024/03/16 05:55:15;;;;;;;3.47;0.50;;;7.90;99.90;;;;;;5018824;28;20052;-72
2024/03/16 05:57:41;;;;;;;6.25;0.80;;;7.90;99.90;;;;;;5009090;28;20030;-72
2024/03/16 06:00:13;;;;;;;4.63;1.77;;;8.00;99.90;;;;;;5017456;28;20040;-70
2024/03/16 06:02:39;;;;;;;2.30;0.32;;;7.90;99.90;;;;;;5012934;28;20045;-71
2024/03/16 06:05:06;;;;;;;2.20;0.47;;;8.00;99.90;;;;;;5014456;28;20104;-72
2024/03/16 06:07:32;;;;;;;6.30;0.77;;;7.90;99.90;;;;;;5013277;28;20063;-73
2024/03/16 06:09:57;;;;;;;12.68;0.88;;;7.90;99.90;;;;;;5013902;28;20037;-71
2024/03/16 06:12:27;;;;;;;2.20;0.40;;;7.90;99.90;;;;;;5013157;28;20041;-71
2024/03/16 06:14:53;;;;;;;7.63;0.97;;;7.90;99.90;;;;;;5012164;28;20041;-71
2024/03/16 06:17:18;;;;;;;9.48;1.33;;;7.90;99.90;;;;;;4997988;28;20061;-71
2024/03/16 06:19:44;;;;;;;4.75;0.50;;;7.90;99.90;;;;;;5013772;28;20072;-72
2024/03/16 06:22:10;;;;;;;11.60;1.48;;;7.90;99.90;;;;;;5014494;28;20428;-71
2024/03/16 06:24:35;;;;;;;7.20;0.65;;;7.90;99.90;;;;;;4992562;28;20477;-71
2024/03/16 06:27:05;;;;;;;9.88;1.77;;;7.90;99.90;;;;;;5013833;28;20041;-71
2024/03/16 06:29:32;;;;;;;15.65;2.70;;;7.90;99.90;;;;;;5008736;28;20029;-70
2024/03/16 06:32:05;;;;;;;6.18;0.80;;;7.90;99.90;;;;;;4995201;28;20541;-70
2024/03/16 06:34:32;;;;;;;8.20;0.50;;;7.90;99.90;;;;;;4988711;28;20120;-71
2024/03/16 06:36:58;;;;;;;6.40;1.08;;;7.90;99.90;;;;;;5015110;28;20072;-71
2024/03/16 06:39:23;;;;;;;8.45;1.00;;;7.90;99.90;;;;;;5013567;28;20062;-71
2024/03/16 06:41:49;;;;;;;6.45;1.17;;;7.90;99.90;;;;;;5017539;28;20037;-71
2024/03/16 06:44:15;;;;;;;6.07;1.35;;;7.90;99.90;;;;;;5014057;28;20061;-71
2024/03/16 06:46:41;;;;;;;9.15;0.90;;;7.90;99.90;;;;;;5022825;28;20054;-72
2024/03/16 06:49:06;;;;;;;5.85;0.70;;;7.90;99.90;;;;;;5024060;28;20120;-72
2024/03/16 06:51:32;;;;;;;4.00;0.50;;;8.00;99.90;;;;;;5024832;28;20095;-70
2024/03/16 06:53:57;;;;;;;4.90;0.60;;;8.00;99.90;;;;;;5023351;28;20449;-71
2024/03/16 06:56:23;;;;;;;10.35;1.25;;;8.00;99.90;;;;;;5008032;28;20041;-69
2024/03/16 06:58:49;;;;;;;10.40;0.57;;;8.10;99.90;;;;;;4992867;28;20057;-71
2024/03/16 07:01:14;;;;;;;10.75;0.95;;;8.20;99.90;;;;;;5018268;28;20145;-71
2024/03/16 07:03:40;;;;;;;2.22;0.30;;;8.20;99.90;;;;;;5008149;28;20033;-73
2024/03/16 07:06:08;;;;;;;4.28;0.45;;;8.20;99.90;;;;;;5016015;28;20030;-70
2024/03/16 07:08:36;;;;;;;8.13;3.03;;;8.20;99.90;;;;;;5023089;28;20033;-72
2024/03/16 07:11:02;;;;;;;5.57;1.65;;;8.30;99.90;;;;;;5022064;28;20574;-71
2024/03/16 07:13:27;;;;;;;1.65;0.30;;;8.30;99.90;;;;;;5000055;28;20084;-71
2024/03/16 07:15:53;;;;;;;2.35;0.55;;;8.40;99.90;;;;;;5018925;28;20060;-70
2024/03/16 07:18:19;;;;;;;1.88;0.70;;;8.40;99.90;;;;;;5002141;28;20041;-72
2024/03/16 07:20:46;;;;;;;23.52;2.28;;;8.30;99.90;;;;;;5000944;28;20139;-71
2024/03/16 07:23:12;;;;;;;2.22;0.43;;;8.30;99.90;;;;;;5013417;28;20034;-72
2024/03/16 07:25:37;;;;;;;9.98;0.98;;;8.30;99.90;;;;;;5001600;28;20073;-72
2024/03/16 07:28:04;;;;;;;3.70;0.63;;;8.30;99.90;;;;;;5019090;28;20056;-74
2024/03/16 07:30:30;;;;;;;6.88;0.82;;;8.20;99.90;;;;;;5003931;28;20187;-72
2024/03/16 07:32:56;;;;;;;3.75;0.75;;;8.10;99.90;;;;;;5015956;28;20501;-70
2024/03/16 07:35:22;;;;;;;3.75;0.98;;;8.10;99.90;;;;;;5016847;28;20034;-72
2024/03/16 07:37:47;;;;;;;2.85;0.60;;;8.00;99.90;;;;;;5017139;28;20075;-73
2024/03/16 07:40:13;;;;;;;3.45;0.38;;;8.10;99.90;;;;;;4994639;28;20094;-71
2024/03/16 07:42:42;;;;;;;3.78;1.10;;;8.20;99.90;;;;;;5021336;28;20037;-71
2024/03/16 07:45:08;;;;;;;4.03;0.30;;;8.20;99.90;;;;;;5000137;28;20479;-71
2024/03/16 07:47:34;;;;;;;3.47;0.40;;;8.20;99.90;;;;;;5017229;28;20040;-72
2024/03/16 07:50:00;;;;;;;2.38;0.45;;;8.30;99.90;;;;;;5012980;28;20125;-73
2024/03/16 07:52:27;;;;;;;2.45;0.30;;;8.40;99.90;;;;;;4997445;28;20125;-72
2024/03/16 07:54:52;;;;;;;2.65;0.30;;;8.50;99.90;;;;;;5016997;28;20857;-73
2024/03/16 07:57:18;;;;;;;5.07;0.35;;;8.60;99.90;;;;;;5009208;28;20045;-70
2024/03/16 07:59:44;;;;;;;1.80;0.68;;;8.70;99.90;;;;;;5013080;28;20518;-71
2024/03/16 08:02:10;;;;;;;4.88;0.32;;;8.70;99.90;;;;;;5013047;28;20038;-70
2024/03/16 08:04:36;;;;;;;1.85;0.30;;;8.80;99.90;;;;;;4995514;28;20033;-69
2024/03/16 08:07:03;;;;;;;1.08;0.32;;;8.90;99.90;;;;;;4994720;28;20120;-72
2024/03/16 08:09:29;;;;;;;4.93;0.70;;;9.00;99.90;;;;;;4998722;28;20033;-70
2024/03/16 08:11:57;;;;;;;3.47;0.55;;;9.10;99.90;;;;;;4995039;28;20058;-73
2024/03/16 08:14:23;;;;;;;4.43;0.57;;;9.20;99.90;;;;;;5016587;28;20100;-70
2024/03/16 08:16:48;;;;;;;2.30;0.65;;;9.30;99.90;;;;;;5012563;28;20041;-70
2024/03/16 08:19:16;;;;;;;4.18;0.98;;;9.40;99.90;;;;;;4993552;28;20029;-70
2024/03/16 08:21:42;;;;;;;2.97;0.50;;;9.50;99.90;;;;;;5014660;28;20049;-71
2024/03/16 08:24:08;;;;;;;4.43;0.65;;;9.50;99.90;;;;;;5017953;28;20095;-69
2024/03/16 08:26:33;;;;;;;4.45;0.40;;;9.50;99.90;;;;;;5000119;28;20091;-70
2024/03/16 08:29:00;;;;;;;5.57;0.50;;;9.40;99.90;;;;;;5010134;28;20038;-71
2024/03/16 08:31:25;;;;;;;6.78;0.40;;;9.40;99.90;;;;;;5012045;28;20038;-69
2024/03/16 08:33:51;;;;;;;3.60;0.40;;;9.40;99.90;;;;;;5016019;28;20034;-72
2024/03/16 08:36:17;;;;;;;9.18;1.27;;;9.40;99.90;;;;;;4993888;28;20419;-71
2024/03/16 08:38:42;;;;;;;2.47;0.30;;;9.30;99.90;;;;;;4997420;28;20069;-73
2024/03/16 08:41:08;;;;;;;3.65;0.20;;;9.20;99.90;;;;;;5009444;28;20034;-71
2024/03/16 08:43:33;;;;;;;1.60;0.20;;;9.30;99.90;;;;;;5015513;28;20049;-71
2024/03/16 08:46:06;;;;;;;9.30;1.58;;;9.40;99.90;;;;;;5010066;28;20068;-73
2024/03/16 08:48:34;;;;;;;2.30;0.30;;;9.40;99.90;;;;;;5015011;28;20048;-72
2024/03/16 08:51:00;;;;;;;3.20;1.05;;;9.40;99.90;;;;;;5011854;28;20124;-72
2024/03/16 08:53:26;;;;;;;2.72;0.40;;;9.50;99.90;;;;;;5012863;28;20118;-71
2024/03/16 08:55:56;;;;;;;4.97;0.45;;;9.50;99.90;;;;;;5007850;28;20077;-71
2024/03/16 08:58:24;;;;;;;5.70;1.27;;;9.50;99.90;;;;;;5018515;28;20037;-71
2024/03/16 09:00:51;;;;;;;7.68;0.73;;;9.60;99.90;;;;;;5014002;28;20048;-70
2024/03/16 09:03:17;;;;;;;6.10;1.20;;;9.70;99.90;;;;;;5010936;28;20510;-70
2024/03/16 09:05:42;;;;;;;3.42;0.38;;;9.60;99.90;;;;;;4998111;28;20120;-70
2024/03/16 09:08:08;;;;;;;10.32;1.70;;;9.70;99.90;;;;;;5018102;28;20792;-71
2024/03/16 09:10:34;;;;;;;5.18;0.50;;;9.70;99.90;;;;;;5012402;28;20145;-73
2024/03/16 09:13:00;;;;;;;5.82;1.38;;;9.70;99.90;;;;;;5007853;28;20033;-72
2024/03/16 09:15:26;;;;;;;5.47;0.50;;;9.70;99.90;;;;;;5012249;28;20030;-69
2024/03/16 09:17:51;;;;;;;6.75;0.85;;;9.70;99.90;;;;;;5014408;28;20080;-70
2024/03/16 09:20:17;;;;;;;4.60;0.68;;;9.70;99.90;;;;;;5012728;28;20088;-72
2024/03/16 09:22:43;;;;;;;3.33;0.55;;;9.80;99.90;;;;;;5015642;28;20063;-72
2024/03/16 09:25:09;;;;;;;5.50;0.57;;;9.90;99.90;;;;;;4997562;28;20041;-72
2024/03/16 09:27:35;;;;;;;6.93;0.63;;;10.00;99.90;;;;;;5012295;28;20033;-73
2024/03/16 09:30:04;;;;;;;4.18;0.50;;;10.20;99.90;;;;;;4996910;28;20041;-71
2024/03/16 09:32:30;;;;;;;5.13;0.82;;;10.30;99.90;;;;;;4997948;28;20029;-72
2024/03/16 09:34:55;;;;;;;1.30;0.50;;;10.40;99.90;;;;;;5015336;28;20034;-72
2024/03/16 09:37:21;;;;;;;3.00;0.20;;;10.20;99.90;;;;;;5013267;28;20530;-73
2024/03/16 09:39:46;;;;;;;3.45;0.20;;;10.10;99.90;;;;;;4988751;28;20041;-73
2024/03/16 09:42:12;;;;;;;3.08;0.52;;;10.10;99.90;;;;;;4994008;28;20074;-72
2024/03/16 09:44:38;;;;;;;8.48;0.30;;;10.10;99.90;;;;;;5016612;28;20081;-74
2024/03/16 09:47:12;;;;;;;3.35;0.63;;;10.10;99.90;;;;;;5011877;28;20038;-72
2024/03/16 09:49:37;;;;;;;3.80;0.32;;;10.00;99.90;;;;;;5014191;28;20036;-73
2024/03/16 09:52:04;;;;;;;3.90;0.63;;;10.00;99.90;;;;;;5016403;28;20022;-71
2024/03/16 09:54:32;;;;;;;2.13;0.30;;;10.00;99.90;;;;;;5008555;28;20407;-70
2024/03/16 09:56:58;;;;;;;2.28;0.30;;;10.10;99.90;;;;;;5011038;28;20045;-73
2024/03/16 09:59:25;;;;;;;7.22;0.52;;;10.20;99.90;;;;;;5014903;28;21993;-73
2024/03/16 10:01:51;;;;;;;2.17;0.20;;;10.40;99.90;;;;;;5009511;28;20044;-73
2024/03/16 10:04:16;;;;;;;2.63;0.20;;;10.50;99.90;;;;;;4993960;28;20473;-72
2024/03/16 10:06:42;;;;;;;3.63;0.63;;;10.60;99.90;;;;;;4993334;28;20034;-73
2024/03/16 10:09:12;;;;;;;2.72;0.28;;;10.70;99.90;;;;;;5013795;28;20034;-72
2024/03/16 10:11:43;;;;;;;3.17;0.30;;;10.70;99.90;;;;;;5016273;28;20491;-70
2024/03/16 10:14:11;;;;;;;2.70;1.08;;;10.70;99.90;;;;;;5009786;28;20707;-72
2024/03/16 10:16:40;;;;;;;5.88;0.30;;;10.60;99.90;;;;;;4997494;28;20609;-70
2024/03/16 10:19:10;;;;;;;0.88;0.20;;;10.60;99.90;;;;;;4997761;28;20041;-72
2024/03/16 10:21:36;;;;;;;4.73;0.37;;;10.60;99.90;;;;;;5006258;28;20053;-73
2024/03/16 10:24:02;;;;;;;2.00;0.30;;;10.70;99.90;;;;;;5014093;28;20358;-73
2024/03/16 10:26:30;;;;;;;1.67;0.30;;;10.70;99.90;;;;;;4997710;28;20399;-73
2024/03/16 10:29:01;;;;;;;5.57;1.90;;;10.70;99.90;;;;;;5016554;28;20040;-73
2024/03/16 10:31:29;;;;;;;12.30;0.73;;;10.60;99.90;;;;;;4995499;28;20041;-72
2024/03/16 10:33:56;;;;;;;3.60;0.85;;;10.50;99.90;;;;;;4992560;28;20779;-72
2024/03/16 10:36:22;;;;;;;3.65;0.30;;;10.50;99.90;;;;;;5016013;28;20957;-73
2024/03/16 10:38:50;;;;;;;1.13;0.30;;;10.50;99.90;;;;;;4995162;28;20418;-72
2024/03/16 10:41:16;;;;;;;4.20;0.40;;;10.60;99.90;;;;;;5017717;28;20037;-73
2024/03/16 10:43:44;;;;;;;4.18;0.47;;;10.70;99.90;;;;;;5012816;28;20121;-72
2024/03/16 10:46:10;;;;;;;3.75;0.30;;;10.70;99.90;;;;;;5007504;28;20042;-74
2024/03/16 10:48:37;;;;;;;3.65;0.38;;;10.80;99.90;;;;;;5016793;28;20025;-71
2024/03/16 10:51:08;;;;;;;1.30;0.22;;;10.90;99.90;;;;;;5018264;28;20050;-71
2024/03/16 10:53:36;;;;;;;2.80;0.70;;;10.90;99.90;;;;;;4994390;28;20041;-73
2024/03/16 10:56:03;;;;;;;5.38;1.05;;;10.90;99.90;;;;;;5001703;28;20373;-72
2024/03/16 10:58:29;;;;;;;2.42;0.30;;;10.90;99.90;;;;;;5003888;28;20745;-71
2024/03/16 11:01:07;;;;;;;2.90;0.38;;;11.00;99.90;;;;;;4986621;28;20818;-69
2024/03/16 11:03:36;;;;;;;2.92;0.60;;;11.00;99.90;;;;;;5008673;28;20033;-74
2024/03/16 11:06:12;;;;;;;2.47;0.45;;;11.10;99.90;;;;;;4986400;28;20027;-73
2024/03/16 11:08:42;;;;;;;4.60;0.60;;;11.10;99.90;;;;;;5011986;28;20042;-71
2024/03/16 11:11:15;;;;;;;3.50;1.00;;;11.20;99.90;;;;;;5006211;28;20605;-74
2024/03/16 11:14:05;;;;;;;3.38;0.70;;;11.30;99.90;;;;;;5005311;28;20407;-71
2024/03/16 11:16:46;;;;;;;3.63;1.20;;;11.50;99.90;;;;;;4992950;28;20038;-71
2024/03/16 11:19:22;;;;;;;7.82;0.93;;;11.70;99.90;;;;;;5003963;28;20041;-71
2024/03/16 11:21:49;;;;;;;3.53;0.70;;;11.70;99.90;;;;;;5007341;28;20066;-72
2024/03/16 11:24:17;;;;;;;3.90;0.40;;;11.90;99.90;;;;;;5013638;28;20038;-72
2024/03/16 11:26:43;;;;;;;7.53;1.45;;;11.90;99.90;;;;;;4996578;28;20042;-73
2024/03/16 11:29:19;;;;;;;2.63;0.52;;;12.00;99.90;;;;;;4993992;28;20041;-72
2024/03/16 11:31:53;;;;;;;11.32;0.55;;;12.20;99.90;;;;;;5015072;28;20052;-71
2024/03/16 11:34:22;;;;;;;7.50;0.60;;;12.30;99.90;;;;;;4989838;28;20404;-72
2024/03/16 11:36:53;;;;;;;3.65;0.45;;;12.20;99.90;;;;;;4990066;28;20127;-71
2024/03/16 11:39:28;;;;;;;;;;;12.20;99.90;;;;;;4989349;28;20111;-69
2024/03/16 11:41:58;;;;;;;7.55;0.80;;;12.20;99.90;;;;;;4992369;28;19917;-72
2024/03/16 11:44:24;;;;;;;3.83;0.65;;;12.10;99.90;;;;;;4999588;28;20095;-73
2024/03/16 11:46:52;;;;;;;2.10;0.30;;;12.10;99.90;;;;;;5014025;28;20045;-72
2024/03/16 11:49:18;;;;;;;4.80;0.40;;;12.10;99.90;;;;;;5019094;28;20045;-71
2024/03/16 11:51:45;;;;;;;5.50;0.77;;;12.00;99.90;;;;;;5017611;28;20633;-72
2024/03/16 11:54:14;;;;;;;1.63;0.73;;;12.00;99.90;;;;;;5010237;28;20407;-71
2024/03/16 11:56:44;;;;;;;3.50;0.20;;;12.00;99.90;;;;;;4999898;28;20049;-72
2024/03/16 11:59:18;;;;;;;2.20;0.63;;;12.00;99.90;;;;;;4991362;28;20037;-73
2024/03/16 12:01:52;;;;;;;4.63;0.50;;;12.10;99.90;;;;;;5007792;28;20045;-71
2024/03/16 12:04:20;;;;;;;3.08;0.60;;;12.20;99.90;;;;;;5012202;28;20026;-71
2024/03/16 12:06:50;;;;;;;4.40;0.60;;;12.30;99.90;;;;;;4995057;28;20037;-71
2024/03/16 12:09:18;;;;;;;3.92;0.40;;;12.40;99.90;;;;;;4998508;28;20074;-71
2024/03/16 12:11:48;;;;;;;4.45;0.40;;;12.40;99.90;;;;;;5000109;28;20033;-72
2024/03/16 12:14:17;;;;;;;2.30;0.70;;;12.50;99.90;;;;;;5013963;28;20049;-70
2024/03/16 12:16:43;;;;;;;4.05;0.80;;;12.70;99.90;;;;;;5016420;28;20067;-71
2024/03/16 12:19:13;;;;;;;3.33;0.47;;;12.60;99.90;;;;;;4995385;28;20055;-72
2024/03/16 12:21:43;;;;;;;5.82;0.73;;;12.40;99.90;;;;;;4995940;28;20470;-70
2024/03/16 12:24:13;;;;;;;7.07;0.63;;;12.20;99.90;;;;;;5012410;28;20067;-72
2024/03/16 12:26:40;;;;;;;2.25;0.88;;;12.00;99.90;;;;;;5012305;28;20041;-71
2024/03/16 12:29:18;;;;;;;6.32;0.65;;;11.90;99.90;;;;;;4998007;28;20073;-74
2024/03/16 12:31:56;;;;;;;4.82;0.82;;;12.00;99.90;;;;;;4997537;28;20194;-74
2024/03/16 12:34:24;;;;;;;2.17;0.28;;;11.90;99.90;;;;;;5016211;28;20049;-72
2024/03/16 12:36:50;;;;;;;1.98;0.25;;;11.90;99.90;;;;;;5015468;28;20112;-72
2024/03/16 12:39:15;;;;;;;3.03;0.52;;;11.80;99.90;;;;;;5015668;28;20185;-72
2024/03/16 12:41:41;;;;;;;3.85;0.93;;;11.80;99.90;;;;;;5014430;28;20063;-71
2024/03/16 12:44:08;;;;;;;3.38;0.40;;;11.90;99.90;;;;;;5009015;28;20571;-73
2024/03/16 12:46:34;;;;;;;2.28;0.38;;;11.90;99.90;;;;;;5010279;28;20037;-72
2024/03/16 12:49:00;;;;;;;1.95;0.22;;;12.00;99.90;;;;;;5016205;28;20088;-70